Time;durP1;ratioP1;P1;durP2;ratioP2;P2;SDS_P1;SDS_P2;PMS_P1;PMS_P2;Temp;Humidity;BMP_temperature;BMP_pressure;BME280_temperature;BME280_humidity;BME280_pressure;Samples;Min_cycle;Max_cycle;Signal;HPM_P1;HPM_P2
2022/05/15 00:00:38;;;;;;;14.45;6.45;;;;;;;;;;2065030;28;20212;-54
2022/05/15 00:01:38;;;;;;;14.52;6.47;;;;;;;;;;2064896;28;20166;-55
2022/05/15 00:02:39;;;;;;;16.95;6.80;;;;;;;;;;2065588;28;20182;-55
2022/05/15 00:03:40;;;;;;;15.90;6.82;;;;;;;;;;2065177;28;20545;-59
2022/05/15 00:04:40;;;;;;;13.52;6.93;;;;;;;;;;2064950;28;20170;-57
2022/05/15 00:05:41;;;;;;;17.80;7.15;;;;;;;;;;2065879;28;20174;-57
2022/05/15 00:06:41;;;;;;;14.95;7.07;;;;;;;;;;2065461;28;20176;-54
2022/05/15 00:07:41;;;;;;;12.70;6.63;;;;;;;;;;2065111;28;20637;-59
2022/05/15 00:08:42;;;;;;;15.60;6.68;;;;;;;;;;2065958;28;20236;-57
2022/05/15 00:09:43;;;;;;;17.58;6.65;;;;;;;;;;2065496;28;20256;-55
2022/05/15 00:10:44;;;;;;;16.05;6.88;;;;;;;;;;2065779;28;20228;-54
2022/05/15 00:11:44;;;;;;;15.45;7.38;;;;;;;;;;2066662;28;20201;-56
2022/05/15 00:12:45;;;;;;;11.63;6.75;;;;;;;;;;2069692;28;20237;-59
2022/05/15 00:13:46;;;;;;;11.80;7.10;;;;;;;;;;2070436;28;20205;-55
2022/05/15 00:14:47;;;;;;;9.43;6.75;;;;;;;;;;2061042;28;20221;-53
2022/05/15 00:15:49;;;;;;;14.15;7.32;;;;;;;;;;2062088;28;20286;-56
2022/05/15 00:16:49;;;;;;;17.63;7.38;;;;;;;;;;2070668;28;20646;-58
2022/05/15 00:17:49;;;;;;;14.07;7.50;;;;;;;;;;2070823;28;20264;-56
2022/05/15 00:18:50;;;;;;;15.20;6.72;;;;;;;;;;2070343;28;20173;-58
2022/05/15 00:19:51;;;;;;;13.40;6.95;;;;;;;;;;2070460;28;20185;-57
2022/05/15 00:20:51;;;;;;;18.30;8.35;;;;;;;;;;2069781;28;20178;-54
2022/05/15 00:21:52;;;;;;;17.55;10.95;;;;;;;;;;2069789;28;20236;-57
2022/05/15 00:22:53;;;;;;;21.85;13.57;;;;;;;;;;2068885;28;20228;-54
2022/05/15 00:23:53;;;;;;;18.83;10.90;;;;;;;;;;2069575;28;20174;-55
2022/05/15 00:24:54;;;;;;;20.75;13.50;;;;;;;;;;2068408;28;20182;-56
2022/05/15 00:25:54;;;;;;;25.00;14.13;;;;;;;;;;2068902;28;20734;-57
2022/05/15 00:26:55;;;;;;;12.15;6.75;;;;;;;;;;2069518;28;20186;-58
2022/05/15 00:27:55;;;;;;;9.63;6.20;;;;;;;;;;2060227;28;20171;-56
2022/05/15 00:28:55;;;;;;;13.90;6.55;;;;;;;;;;2052310;28;20210;-56
2022/05/15 00:29:56;;;;;;;13.98;6.45;;;;;;;;;;2060195;28;20205;-56
2022/05/15 00:30:56;;;;;;;13.15;6.72;;;;;;;;;;2067871;28;20261;-53
2022/05/15 00:31:57;;;;;;;22.42;8.23;;;;;;;;;;2067620;28;20700;-55
2022/05/15 00:32:58;;;;;;;13.63;6.63;;;;;;;;;;2067106;28;20186;-58
2022/05/15 00:33:58;;;;;;;13.15;6.43;;;;;;;;;;2067011;28;20189;-55
2022/05/15 00:34:59;;;;;;;12.48;6.70;;;;;;;;;;2058352;28;20336;-54
2022/05/15 00:36:00;;;;;;;11.27;6.63;;;;;;;;;;2057870;28;20691;-52
2022/05/15 00:37:00;;;;;;;18.02;6.47;;;;;;;;;;2065758;28;20182;-51
2022/05/15 00:38:06;;;;;;;13.43;6.78;;;;;;;;;;2065962;28;20170;-51
2022/05/15 00:39:06;;;;;;;11.77;6.18;;;;;;;;;;2066363;28;20246;-59
2022/05/15 00:40:07;;;;;;;11.07;5.97;;;;;;;;;;2066095;28;20220;-54
2022/05/15 00:41:08;;;;;;;13.65;6.55;;;;;;;;;;2058689;28;20687;-58
2022/05/15 00:42:09;;;;;;;14.07;6.68;;;;;;;;;;2058581;28;20190;-53
2022/05/15 00:43:32;;;;;;;9.82;5.65;;;;;;;;;;2063088;28;20584;-56
2022/05/15 00:44:33;;;;;;;15.13;6.90;;;;;;;;;;2058115;28;20232;-53
2022/05/15 00:45:34;;;;;;;17.02;7.68;;;;;;;;;;2057872;28;20166;-55
2022/05/15 00:46:36;;;;;;;12.35;6.70;;;;;;;;;;2057694;28;20174;-52
2022/05/15 00:47:37;;;;;;;17.77;7.22;;;;;;;;;;2057373;28;20178;-52
2022/05/15 00:48:38;;;;;;;12.57;6.20;;;;;;;;;;2057479;28;20171;-55
2022/05/15 00:49:38;;;;;;;11.48;6.70;;;;;;;;;;2065855;28;20177;-54
2022/05/15 00:50:38;;;;;;;14.02;6.63;;;;;;;;;;2066021;28;20193;-59
2022/05/15 00:51:41;;;;;;;10.60;6.18;;;;;;;;;;2073122;28;20209;-54
2022/05/15 00:52:43;;;;;;;15.65;7.00;;;;;;;;;;2065412;28;20555;-55
2022/05/15 00:53:43;;;;;;;11.38;6.32;;;;;;;;;;2057590;28;20202;-55
2022/05/15 00:54:47;;;;;;;18.95;8.75;;;;;;;;;;2049199;29;20190;-53
2022/05/15 00:55:49;;;;;;;14.95;6.57;;;;;;;;;;2073867;22;20198;-51
2022/05/15 00:56:52;;;;;;;10.90;6.25;;;;;;;;;;2066925;28;20206;-49
2022/05/15 00:57:54;;;;;;;13.48;6.95;;;;;;;;;;2077507;28;20187;-58
2022/05/15 00:59:02;;;;;;;15.73;6.55;;;;;;;;;;2085687;28;20282;-54
2022/05/15 01:00:14;;;;;;;12.43;6.30;;;;;;;;;;2077897;28;20653;-54
2022/05/15 01:01:17;;;;;;;13.57;5.95;;;;;;;;;;2078291;28;20243;-53
2022/05/15 01:02:19;;;;;;;12.60;6.53;;;;;;;;;;2079227;28;20177;-54
2022/05/15 01:03:20;;;;;;;9.98;6.03;;;;;;;;;;2079189;28;20180;-55
2022/05/15 01:04:21;;;;;;;20.55;6.35;;;;;;;;;;2076846;28;20224;-52
2022/05/15 01:05:21;;;;;;;14.40;7.28;;;;;;;;;;2075126;28;20233;-59
2022/05/15 01:06:22;;;;;;;14.30;6.97;;;;;;;;;;2076162;28;20239;-53
2022/05/15 01:07:23;;;;;;;15.13;6.90;;;;;;;;;;2067962;28;20176;-61
2022/05/15 01:08:27;;;;;;;12.80;6.20;;;;;;;;;;2074780;28;20207;-52
2022/05/15 01:09:28;;;;;;;17.50;7.05;;;;;;;;;;2084061;28;20195;-54
2022/05/15 01:10:29;;;;;;;11.50;6.85;;;;;;;;;;2083917;28;20171;-53
2022/05/15 01:11:29;;;;;;;13.73;7.85;;;;;;;;;;2075676;28;20184;-55
2022/05/15 01:12:29;;;;;;;14.75;7.40;;;;;;;;;;2067464;28;20688;-57
2022/05/15 01:13:31;;;;;;;11.57;6.88;;;;;;;;;;2069405;28;20182;-55
2022/05/15 01:14:33;;;;;;;12.88;7.15;;;;;;;;;;2075531;28;20681;-55
2022/05/15 01:15:33;;;;;;;12.95;6.70;;;;;;;;;;2075268;28;20196;-53
2022/05/15 01:16:37;;;;;;;10.30;6.50;;;;;;;;;;2066997;28;20201;-54
2022/05/15 01:17:37;;;;;;;12.20;7.53;;;;;;;;;;2074799;28;20200;-54
2022/05/15 01:18:38;;;;;;;16.45;7.57;;;;;;;;;;2066447;28;20174;-55
2022/05/15 01:19:40;;;;;;;11.35;6.05;;;;;;;;;;2075025;28;20181;-54
2022/05/15 01:20:40;;;;;;;10.10;6.35;;;;;;;;;;2074629;28;20240;-51
2022/05/15 01:21:55;;;;;;;14.25;6.82;;;;;;;;;;2066606;28;20181;-53
2022/05/15 01:22:56;;;;;;;10.98;6.68;;;;;;;;;;2067690;28;20622;-53
2022/05/15 01:23:56;;;;;;;14.10;8.00;;;;;;;;;;2075058;28;20192;-58
2022/05/15 01:24:56;;;;;;;12.77;7.47;;;;;;;;;;2083050;28;20232;-55
2022/05/15 01:25:58;;;;;;;12.40;7.32;;;;;;;;;;2075555;28;20175;-55
2022/05/15 01:27:02;;;;;;;15.68;8.30;;;;;;;;;;2076365;28;20188;-53
2022/05/15 01:28:16;;;;;;;12.70;7.10;;;;;;;;;;2076262;28;20268;-58
2022/05/15 01:29:18;;;;;;;16.35;7.95;;;;;;;;;;2075464;28;20172;-56
2022/05/15 01:30:18;;;;;;;15.68;6.93;;;;;;;;;;2071654;28;20183;-57
2022/05/15 01:31:19;;;;;;;11.65;7.38;;;;;;;;;;2075979;28;20181;-58
2022/05/15 01:32:19;;;;;;;15.98;7.68;;;;;;;;;;2075918;28;20209;-53
2022/05/15 01:33:20;;;;;;;12.30;7.15;;;;;;;;;;2067935;28;20208;-53
2022/05/15 01:34:21;;;;;;;12.25;6.53;;;;;;;;;;2067036;28;20178;-55
2022/05/15 01:35:21;;;;;;;19.00;8.32;;;;;;;;;;2067080;28;20177;-55
2022/05/15 01:36:23;;;;;;;11.77;7.30;;;;;;;;;;2067576;28;20276;-53
2022/05/15 01:37:23;;;;;;;13.43;6.60;;;;;;;;;;2075727;28;20176;-53
2022/05/15 01:38:24;;;;;;;16.95;7.35;;;;;;;;;;2075619;28;20667;-52
2022/05/15 01:39:25;;;;;;;13.50;7.22;;;;;;;;;;2074916;28;20165;-51
2022/05/15 01:40:25;;;;;;;17.58;9.60;;;;;;;;;;2069049;28;20173;-53
2022/05/15 01:41:26;;;;;;;13.23;8.00;;;;;;;;;;2058590;28;20178;-52
2022/05/15 01:42:26;;;;;;;12.32;7.90;;;;;;;;;;2051020;28;20167;-52
2022/05/15 01:43:26;;;;;;;14.35;7.82;;;;;;;;;;2066887;28;20189;-52
2022/05/15 01:44:27;;;;;;;17.67;7.45;;;;;;;;;;2058938;28;20174;-53
2022/05/15 01:45:27;;;;;;;12.25;6.85;;;;;;;;;;2068706;28;20166;-53
2022/05/15 01:46:29;;;;;;;14.75;6.50;;;;;;;;;;2067328;28;20594;-56
2022/05/15 01:47:32;;;;;;;12.68;6.55;;;;;;;;;;2059611;28;20310;-52
2022/05/15 01:48:34;;;;;;;7.43;6.07;;;;;;;;;;2060256;28;20256;-54
2022/05/15 01:49:36;;;;;;;13.38;6.97;;;;;;;;;;2080985;28;20266;-56
2022/05/15 01:50:36;;;;;;;11.40;6.55;;;;;;;;;;2074047;28;20255;-54
2022/05/15 01:51:39;;;;;;;12.20;6.72;;;;;;;;;;2075553;28;20173;-56
2022/05/15 01:52:40;;;;;;;11.10;6.63;;;;;;;;;;2082513;28;20183;-57
2022/05/15 01:53:41;;;;;;;13.98;6.88;;;;;;;;;;2083007;28;20180;-54
2022/05/15 01:54:42;;;;;;;14.32;7.28;;;;;;;;;;2081515;28;20160;-55
2022/05/15 01:55:43;;;;;;;13.57;7.18;;;;;;;;;;2074508;28;20230;-52
2022/05/15 01:56:43;;;;;;;11.90;6.95;;;;;;;;;;2075305;28;20177;-55
2022/05/15 01:57:44;;;;;;;12.15;6.93;;;;;;;;;;2084211;28;20173;-56
2022/05/15 01:58:45;;;;;;;11.50;6.68;;;;;;;;;;2083805;28;20196;-54
2022/05/15 01:59:45;;;;;;;15.30;7.15;;;;;;;;;;2075382;28;20208;-52
2022/05/15 02:00:47;;;;;;;13.95;7.85;;;;;;;;;;2074477;28;20177;-56
2022/05/15 02:01:47;;;;;;;13.65;6.32;;;;;;;;;;2066970;28;20256;-55
2022/05/15 02:02:48;;;;;;;12.07;7.13;;;;;;;;;;2074151;28;20287;-52
2022/05/15 02:03:49;;;;;;;14.02;7.90;;;;;;;;;;2073920;28;20625;-57
2022/05/15 02:04:50;;;;;;;11.57;6.45;;;;;;;;;;2066130;28;20185;-48
2022/05/15 02:05:50;;;;;;;14.00;7.13;;;;;;;;;;2066195;28;20185;-57
2022/05/15 02:06:51;;;;;;;10.90;6.38;;;;;;;;;;2065439;28;20216;-53
2022/05/15 02:07:52;;;;;;;10.40;7.05;;;;;;;;;;2073956;28;20248;-55
2022/05/15 02:08:52;;;;;;;11.15;6.53;;;;;;;;;;2065544;28;20177;-53
2022/05/15 02:09:52;;;;;;;12.98;6.40;;;;;;;;;;2057464;28;20178;-53
2022/05/15 02:10:53;;;;;;;11.10;6.18;;;;;;;;;;2070676;28;20265;-57
2022/05/15 02:11:53;;;;;;;10.32;6.38;;;;;;;;;;2066549;28;20208;-55
2022/05/15 02:12:53;;;;;;;12.43;7.45;;;;;;;;;;2073745;28;20221;-52
2022/05/15 02:13:55;;;;;;;13.80;6.03;;;;;;;;;;2065541;28;20165;-52
2022/05/15 02:14:55;;;;;;;14.00;6.80;;;;;;;;;;2065500;28;20314;-56
2022/05/15 02:15:55;;;;;;;12.52;6.32;;;;;;;;;;2078217;28;20238;-56
2022/05/15 02:16:56;;;;;;;14.75;6.85;;;;;;;;;;2082499;28;20172;-59
2022/05/15 02:17:56;;;;;;;10.10;6.45;;;;;;;;;;2074459;28;20543;-56
2022/05/15 02:18:56;;;;;;;15.40;6.85;;;;;;;;;;2073514;28;20177;-53
2022/05/15 02:19:57;;;;;;;10.93;6.40;;;;;;;;;;2065220;28;20287;-56
2022/05/15 02:20:57;;;;;;;15.02;6.63;;;;;;;;;;2074671;28;20180;-50
2022/05/15 02:21:57;;;;;;;13.43;6.78;;;;;;;;;;2066182;28;20224;-58
2022/05/15 02:23:00;;;;;;;10.75;5.97;;;;;;;;;;2058734;28;20186;-54
2022/05/15 02:24:02;;;;;;;12.27;6.22;;;;;;;;;;2057649;28;20189;-54
2022/05/15 02:25:06;;;;;;;13.27;6.50;;;;;;;;;;2065815;28;20192;-53
2022/05/15 02:26:12;;;;;;;10.98;6.45;;;;;;;;;;2071280;28;20605;-55
2022/05/15 02:27:13;;;;;;;12.45;5.78;;;;;;;;;;2065681;28;20245;-52
2022/05/15 02:28:14;;;;;;;11.65;6.78;;;;;;;;;;2057460;28;20209;-54
2022/05/15 02:29:14;;;;;;;11.75;6.13;;;;;;;;;;2057490;28;20182;-56
2022/05/15 02:30:16;;;;;;;14.40;6.55;;;;;;;;;;2065471;28;20185;-54
2022/05/15 02:31:17;;;;;;;13.13;6.50;;;;;;;;;;2063895;28;20165;-54
2022/05/15 02:32:17;;;;;;;9.85;6.30;;;;;;;;;;2065470;28;20232;-53
2022/05/15 02:33:18;;;;;;;9.45;6.35;;;;;;;;;;2065188;28;20624;-52
2022/05/15 02:34:18;;;;;;;11.35;6.05;;;;;;;;;;2064872;28;20220;-54
2022/05/15 02:35:18;;;;;;;17.02;7.03;;;;;;;;;;2065281;28;20176;-60
2022/05/15 02:36:19;;;;;;;16.42;7.00;;;;;;;;;;2065012;28;20674;-55
2022/05/15 02:37:21;;;;;;;10.65;6.32;;;;;;;;;;2065526;28;20208;-56
2022/05/15 02:38:21;;;;;;;12.32;6.40;;;;;;;;;;2065295;28;20178;-56
2022/05/15 02:39:22;;;;;;;10.38;6.65;;;;;;;;;;2065456;28;20193;-55
2022/05/15 02:40:23;;;;;;;12.45;6.75;;;;;;;;;;2073254;28;20187;-56
2022/05/15 02:41:23;;;;;;;12.00;6.32;;;;;;;;;;2073044;28;20169;-50
2022/05/15 02:42:24;;;;;;;11.77;6.13;;;;;;;;;;2064944;28;20186;-52
2022/05/15 02:43:24;;;;;;;11.45;6.50;;;;;;;;;;2073237;28;20260;-52
2022/05/15 02:44:25;;;;;;;11.60;6.07;;;;;;;;;;2064661;28;20182;-56
2022/05/15 02:45:27;;;;;;;14.00;6.57;;;;;;;;;;2065301;28;20196;-52
2022/05/15 02:46:28;;;;;;;10.07;5.85;;;;;;;;;;2064726;28;20198;-54
2022/05/15 02:47:29;;;;;;;10.38;5.95;;;;;;;;;;2065411;28;20174;-58
2022/05/15 02:51:08;;;;;;;14.88;6.78;;;;;;;;;;2078623;28;20160;-50
2022/05/15 02:52:09;;;;;;;16.83;6.57;;;;;;;;;;2072960;28;20693;-53
2022/05/15 02:53:10;;;;;;;10.18;6.28;;;;;;;;;;2064946;28;20161;-52
2022/05/15 02:54:10;;;;;;;10.32;6.35;;;;;;;;;;2072348;28;20184;-52
2022/05/15 02:55:11;;;;;;;14.55;6.88;;;;;;;;;;2073026;28;20169;-55
2022/05/15 02:56:13;;;;;;;9.07;6.00;;;;;;;;;;2064461;28;20744;-51
2022/05/15 02:57:13;;;;;;;12.43;6.22;;;;;;;;;;2073228;28;20278;-52
2022/05/15 02:58:13;;;;;;;10.55;6.43;;;;;;;;;;2073380;28;20223;-56
2022/05/15 02:59:14;;;;;;;12.25;6.63;;;;;;;;;;2081328;28;20176;-54
2022/05/15 03:00:15;;;;;;;9.65;6.63;;;;;;;;;;2072689;28;20169;-55
2022/05/15 03:01:15;;;;;;;9.25;6.47;;;;;;;;;;2072986;28;20169;-52
2022/05/15 03:02:16;;;;;;;14.90;7.57;;;;;;;;;;2080779;28;20271;-52
2022/05/15 03:03:16;;;;;;;9.32;6.05;;;;;;;;;;2080642;28;20262;-56
2022/05/15 03:04:17;;;;;;;13.30;5.97;;;;;;;;;;2072092;28;20177;-53
2022/05/15 03:05:18;;;;;;;11.68;6.25;;;;;;;;;;2081223;28;20210;-57
2022/05/15 03:06:18;;;;;;;10.68;6.15;;;;;;;;;;2081022;28;20184;-48
2022/05/15 03:07:19;;;;;;;12.52;6.32;;;;;;;;;;2072741;28;20275;-55
2022/05/15 03:08:19;;;;;;;10.18;6.93;;;;;;;;;;2072925;28;20180;-54
2022/05/15 03:09:20;;;;;;;12.95;6.28;;;;;;;;;;2081237;28;20232;-54
2022/05/15 03:10:22;;;;;;;7.47;6.30;;;;;;;;;;2072565;28;20173;-53
2022/05/15 03:11:23;;;;;;;10.18;5.78;;;;;;;;;;2064910;28;20200;-55
2022/05/15 03:12:23;;;;;;;8.15;6.57;;;;;;;;;;2064965;28;20204;-50
2022/05/15 03:13:24;;;;;;;13.82;6.68;;;;;;;;;;2080942;28;20702;-51
2022/05/15 03:14:24;;;;;;;13.10;6.25;;;;;;;;;;2070805;28;20188;-51
2022/05/15 03:15:24;;;;;;;13.38;6.78;;;;;;;;;;2065094;28;20181;-57
2022/05/15 03:16:28;;;;;;;9.65;6.57;;;;;;;;;;2073022;28;20189;-54
2022/05/15 03:17:28;;;;;;;12.85;6.45;;;;;;;;;;2073152;28;20699;-53
2022/05/15 03:18:29;;;;;;;10.38;6.53;;;;;;;;;;2073688;28;20173;-55
2022/05/15 03:19:29;;;;;;;16.05;8.70;;;;;;;;;;2073466;28;20173;-58
2022/05/15 03:20:29;;;;;;;15.98;7.95;;;;;;;;;;2073510;28;20251;-55
2022/05/15 03:21:30;;;;;;;13.18;8.30;;;;;;;;;;2073562;28;20177;-54
2022/05/15 03:22:32;;;;;;;13.25;8.15;;;;;;;;;;2081015;28;20172;-55
2022/05/15 03:23:32;;;;;;;11.18;7.20;;;;;;;;;;2081151;28;20203;-54
2022/05/15 03:24:33;;;;;;;11.73;6.68;;;;;;;;;;2073872;28;20162;-58
2022/05/15 03:25:35;;;;;;;10.30;7.28;;;;;;;;;;2074581;28;20660;-61
2022/05/15 03:26:36;;;;;;;11.52;7.05;;;;;;;;;;2081767;28;20200;-56
2022/05/15 03:27:37;;;;;;;12.85;7.35;;;;;;;;;;2081488;28;20628;-58
2022/05/15 03:28:37;;;;;;;12.00;6.82;;;;;;;;;;2081955;28;20180;-58
2022/05/15 03:29:37;;;;;;;12.43;7.90;;;;;;;;;;2073361;28;20196;-58
2022/05/15 03:30:41;;;;;;;12.55;7.30;;;;;;;;;;2065307;28;20729;-56
2022/05/15 03:31:42;;;;;;;11.95;6.78;;;;;;;;;;2073684;28;20177;-53
2022/05/15 03:32:42;;;;;;;14.13;7.43;;;;;;;;;;2073329;28;20256;-58
2022/05/15 03:33:42;;;;;;;17.15;7.20;;;;;;;;;;2073783;28;20177;-56
2022/05/15 03:34:43;;;;;;;10.57;6.93;;;;;;;;;;2073678;28;20224;-54
2022/05/15 03:35:43;;;;;;;9.65;6.63;;;;;;;;;;2066140;28;20328;-58
2022/05/15 03:36:45;;;;;;;9.68;6.70;;;;;;;;;;2065922;28;20185;-55
2022/05/15 03:37:45;;;;;;;9.82;7.15;;;;;;;;;;2073916;28;20172;-60
2022/05/15 03:38:46;;;;;;;12.02;7.25;;;;;;;;;;2074606;28;20706;-55
2022/05/15 03:39:46;;;;;;;10.25;6.90;;;;;;;;;;2073263;28;20847;-55
2022/05/15 03:40:47;;;;;;;13.48;7.03;;;;;;;;;;2074940;28;20667;-54
2022/05/15 03:41:48;;;;;;;13.20;7.53;;;;;;;;;;2082918;28;20196;-57
2022/05/15 03:42:48;;;;;;;11.52;6.22;;;;;;;;;;2081680;28;20176;-50
2022/05/15 03:43:48;;;;;;;10.90;7.30;;;;;;;;;;2081644;28;20640;-58
2022/05/15 03:44:49;;;;;;;11.93;7.53;;;;;;;;;;2073418;28;20566;-57
2022/05/15 03:45:49;;;;;;;14.18;7.20;;;;;;;;;;2057948;28;20189;-55
2022/05/15 03:46:49;;;;;;;11.02;6.68;;;;;;;;;;2067393;28;20169;-54
2022/05/15 03:47:51;;;;;;;14.07;6.97;;;;;;;;;;2067806;28;20186;-58
2022/05/15 03:48:52;;;;;;;13.07;8.10;;;;;;;;;;2075188;28;20653;-57
2022/05/15 03:49:53;;;;;;;11.68;7.65;;;;;;;;;;2075587;28;20615;-54
2022/05/15 03:50:53;;;;;;;14.77;7.07;;;;;;;;;;2067064;28;20208;-60
2022/05/15 03:51:54;;;;;;;14.65;7.47;;;;;;;;;;2074847;28;20279;-54
2022/05/15 03:52:54;;;;;;;13.65;7.57;;;;;;;;;;2076111;28;20184;-56
2022/05/15 03:53:54;;;;;;;14.10;7.22;;;;;;;;;;2075711;28;20343;-54
2022/05/15 03:54:54;;;;;;;14.75;7.32;;;;;;;;;;2075294;28;20176;-52
2022/05/15 03:55:58;;;;;;;13.50;7.40;;;;;;;;;;2083267;28;20275;-56
2022/05/15 03:56:58;;;;;;;13.07;8.05;;;;;;;;;;2082942;28;20168;-54
2022/05/15 03:57:59;;;;;;;14.35;8.00;;;;;;;;;;2066932;28;20205;-54
2022/05/15 03:59:00;;;;;;;11.55;7.15;;;;;;;;;;2075375;28;20650;-56
2022/05/15 04:00:00;;;;;;;13.50;6.93;;;;;;;;;;2074753;28;20625;-57
2022/05/15 04:01:01;;;;;;;12.65;7.75;;;;;;;;;;2067480;28;20269;-56
2022/05/15 04:02:02;;;;;;;11.43;7.10;;;;;;;;;;2075050;28;20180;-58
2022/05/15 04:03:04;;;;;;;9.35;7.38;;;;;;;;;;2075291;28;20652;-50
2022/05/15 04:04:05;;;;;;;11.07;7.30;;;;;;;;;;2082480;28;20176;-56
2022/05/15 04:05:06;;;;;;;14.30;8.23;;;;;;;;;;2083490;28;20202;-55
2022/05/15 04:06:06;;;;;;;14.82;7.43;;;;;;;;;;2083269;28;20222;-55
2022/05/15 04:07:06;;;;;;;11.93;7.38;;;;;;;;;;2083315;28;20192;-54
2022/05/15 04:08:07;;;;;;;10.15;7.00;;;;;;;;;;2075471;28;20177;-55
2022/05/15 04:09:07;;;;;;;11.63;7.13;;;;;;;;;;2083391;28;20267;-54
2022/05/15 04:10:08;;;;;;;11.93;6.50;;;;;;;;;;2075145;28;20618;-55
2022/05/15 04:11:08;;;;;;;13.63;6.75;;;;;;;;;;2067499;28;20197;-58
2022/05/15 04:12:09;;;;;;;17.27;8.52;;;;;;;;;;2076291;28;20225;-57
2022/05/15 04:13:10;;;;;;;10.93;7.47;;;;;;;;;;2075462;28;20165;-56
2022/05/15 04:14:10;;;;;;;14.10;7.88;;;;;;;;;;2075617;28;20228;-60
2022/05/15 04:15:11;;;;;;;12.40;7.35;;;;;;;;;;2076485;28;20264;-55
2022/05/15 04:16:13;;;;;;;12.00;7.22;;;;;;;;;;2083337;28;20191;-56
2022/05/15 04:17:13;;;;;;;12.25;7.25;;;;;;;;;;2083760;28;20664;-57
2022/05/15 04:18:14;;;;;;;12.90;6.78;;;;;;;;;;2084438;28;20259;-55
2022/05/15 04:19:14;;;;;;;14.98;7.40;;;;;;;;;;2084849;28;20696;-51
2022/05/15 04:20:16;;;;;;;13.75;7.05;;;;;;;;;;2076115;28;20556;-57
2022/05/15 04:21:17;;;;;;;10.10;6.55;;;;;;;;;;2076558;28;20617;-58
2022/05/15 04:22:17;;;;;;;13.68;7.25;;;;;;;;;;2068667;28;20192;-60
2022/05/15 04:23:17;;;;;;;8.88;6.70;;;;;;;;;;2076429;28;20276;-58
2022/05/15 04:24:18;;;;;;;9.43;6.85;;;;;;;;;;2084220;28;20214;-55
2022/05/15 04:25:19;;;;;;;12.98;6.53;;;;;;;;;;2067204;28;20224;-55
2022/05/15 04:26:20;;;;;;;12.10;6.80;;;;;;;;;;2066646;28;20211;-56
2022/05/15 04:27:20;;;;;;;9.68;6.53;;;;;;;;;;2074692;28;20184;-52
2022/05/15 04:28:20;;;;;;;14.93;6.88;;;;;;;;;;2075064;28;20184;-57
2022/05/15 04:29:20;;;;;;;10.45;6.10;;;;;;;;;;2074619;28;20693;-56
2022/05/15 04:30:23;;;;;;;11.95;6.40;;;;;;;;;;2082894;28;20180;-57
2022/05/15 04:31:23;;;;;;;8.32;6.50;;;;;;;;;;2075069;28;20181;-55
2022/05/15 04:32:23;;;;;;;12.73;6.88;;;;;;;;;;2074970;28;20583;-57
2022/05/15 04:33:23;;;;;;;12.80;6.35;;;;;;;;;;2083087;28;20180;-56
2022/05/15 04:34:25;;;;;;;11.02;6.18;;;;;;;;;;2075240;28;20188;-56
2022/05/15 04:35:25;;;;;;;14.55;6.80;;;;;;;;;;2075429;28;20208;-56
2022/05/15 04:36:25;;;;;;;11.68;6.40;;;;;;;;;;2075302;28;20228;-52
2022/05/15 04:37:25;;;;;;;12.30;6.30;;;;;;;;;;2082805;28;20238;-53
2022/05/15 04:38:26;;;;;;;9.63;6.18;;;;;;;;;;2083036;28;20164;-58
2022/05/15 04:39:26;;;;;;;9.55;6.18;;;;;;;;;;2075678;28;20212;-55
2022/05/15 04:40:27;;;;;;;11.20;6.93;;;;;;;;;;2075598;28;20161;-55
2022/05/15 04:41:27;;;;;;;10.82;6.60;;;;;;;;;;2075531;28;20197;-58
2022/05/15 04:42:28;;;;;;;12.27;6.82;;;;;;;;;;2075434;28;20601;-56
2022/05/15 04:43:28;;;;;;;10.65;6.78;;;;;;;;;;2075579;28;20264;-60
2022/05/15 04:44:29;;;;;;;11.65;6.88;;;;;;;;;;2082025;28;20180;-56
2022/05/15 04:45:29;;;;;;;11.50;6.82;;;;;;;;;;2083133;28;20172;-58
2022/05/15 04:46:29;;;;;;;12.18;6.75;;;;;;;;;;2076116;28;20197;-52
2022/05/15 04:47:30;;;;;;;12.50;7.20;;;;;;;;;;2082693;28;20191;-57
2022/05/15 04:48:30;;;;;;;9.15;6.00;;;;;;;;;;2082798;28;20335;-57
2022/05/15 04:49:31;;;;;;;9.32;6.80;;;;;;;;;;2074567;28;20192;-58
2022/05/15 04:50:31;;;;;;;9.98;6.80;;;;;;;;;;2083107;28;20211;-56
2022/05/15 04:51:31;;;;;;;8.98;6.45;;;;;;;;;;2083403;28;20548;-57
2022/05/15 04:52:31;;;;;;;9.85;6.50;;;;;;;;;;2075787;28;20215;-54
2022/05/15 04:53:32;;;;;;;12.30;7.13;;;;;;;;;;2075191;28;20256;-55
2022/05/15 04:54:32;;;;;;;9.48;6.10;;;;;;;;;;2074612;28;20608;-56
2022/05/15 04:55:33;;;;;;;10.30;6.75;;;;;;;;;;2082656;28;20161;-56
2022/05/15 04:56:33;;;;;;;12.05;6.72;;;;;;;;;;2081930;28;20238;-57
2022/05/15 04:57:33;;;;;;;11.88;6.43;;;;;;;;;;2075012;28;20161;-56
2022/05/15 04:58:34;;;;;;;10.90;6.93;;;;;;;;;;2074915;28;20216;-53
2022/05/15 04:59:34;;;;;;;13.10;6.93;;;;;;;;;;2074668;28;20176;-51
2022/05/15 05:00:34;;;;;;;12.68;6.70;;;;;;;;;;2082513;28;20664;-57
2022/05/15 05:01:34;;;;;;;11.95;5.95;;;;;;;;;;2082384;28;20172;-58
2022/05/15 05:02:35;;;;;;;10.32;7.03;;;;;;;;;;2074890;28;20548;-55
2022/05/15 05:03:35;;;;;;;7.43;5.93;;;;;;;;;;2075933;28;20223;-57
2022/05/15 05:04:35;;;;;;;8.98;7.07;;;;;;;;;;2075992;28;20172;-57
2022/05/15 05:05:36;;;;;;;10.90;7.10;;;;;;;;;;2076039;28;20200;-56
2022/05/15 05:06:36;;;;;;;10.18;6.60;;;;;;;;;;2076570;28;20185;-57
2022/05/15 05:07:37;;;;;;;12.07;6.32;;;;;;;;;;2076067;28;20188;-58
2022/05/15 05:08:37;;;;;;;11.57;6.60;;;;;;;;;;2076882;28;20205;-57
2022/05/15 05:09:37;;;;;;;12.80;6.55;;;;;;;;;;2075758;28;20157;-56
2022/05/15 05:10:38;;;;;;;12.05;7.50;;;;;;;;;;2076625;28;20169;-57
2022/05/15 05:11:39;;;;;;;11.43;6.28;;;;;;;;;;2075981;28;20166;-58
2022/05/15 05:12:39;;;;;;;10.48;6.63;;;;;;;;;;2076342;28;20161;-57
2022/05/15 05:13:41;;;;;;;8.90;6.50;;;;;;;;;;2076489;28;20204;-56
2022/05/15 05:14:41;;;;;;;9.32;6.05;;;;;;;;;;2075396;28;20188;-58
2022/05/15 05:15:41;;;;;;;17.40;7.35;;;;;;;;;;2075488;28;20816;-54
2022/05/15 05:16:41;;;;;;;11.68;6.97;;;;;;;;;;2076425;28;20232;-55
2022/05/15 05:17:42;;;;;;;11.55;6.63;;;;;;;;;;2076377;28;20204;-59
2022/05/15 05:18:42;;;;;;;11.38;6.00;;;;;;;;;;2076633;28;20200;-58
2022/05/15 05:19:42;;;;;;;16.05;6.88;;;;;;;;;;2076266;28;20572;-56
2022/05/15 05:20:43;;;;;;;9.93;6.90;;;;;;;;;;2076942;28;20280;-58
2022/05/15 05:21:43;;;;;;;11.93;6.40;;;;;;;;;;2076244;28;20175;-56
2022/05/15 05:22:44;;;;;;;15.32;7.05;;;;;;;;;;2076065;28;20702;-56
2022/05/15 05:23:44;;;;;;;10.43;6.47;;;;;;;;;;2075413;28;20244;-55
2022/05/15 05:24:44;;;;;;;9.93;7.65;;;;;;;;;;2075428;28;20157;-57
2022/05/15 05:25:44;;;;;;;8.13;6.38;;;;;;;;;;2082707;28;20184;-55
2022/05/15 05:26:46;;;;;;;9.32;6.38;;;;;;;;;;2084238;28;20637;-56
2022/05/15 05:27:46;;;;;;;12.40;6.60;;;;;;;;;;2076635;28;20185;-54
2022/05/15 05:28:47;;;;;;;11.05;6.88;;;;;;;;;;2076329;28;20200;-55
2022/05/15 05:29:47;;;;;;;8.20;5.95;;;;;;;;;;2073482;28;20173;-58
2022/05/15 05:30:48;;;;;;;10.13;6.47;;;;;;;;;;2075349;28;20181;-56
2022/05/15 05:31:49;;;;;;;11.38;7.05;;;;;;;;;;2075227;28;20173;-59
2022/05/15 05:32:49;;;;;;;10.68;6.47;;;;;;;;;;2075403;28;20181;-54
2022/05/15 05:33:49;;;;;;;11.00;6.53;;;;;;;;;;2075057;28;20249;-58
2022/05/15 05:34:50;;;;;;;10.57;6.05;;;;;;;;;;2074508;28;20157;-57
2022/05/15 05:35:50;;;;;;;12.63;6.85;;;;;;;;;;2074978;28;20228;-55
2022/05/15 05:36:50;;;;;;;13.60;6.78;;;;;;;;;;2075665;28;20172;-57
2022/05/15 05:37:51;;;;;;;10.82;6.53;;;;;;;;;;2076142;28;20231;-59
2022/05/15 05:38:51;;;;;;;11.02;5.85;;;;;;;;;;2083117;28;20168;-55
2022/05/15 05:39:51;;;;;;;11.70;6.80;;;;;;;;;;2083129;28;20187;-54
2022/05/15 05:40:52;;;;;;;7.28;5.88;;;;;;;;;;2075296;28;20191;-60
2022/05/15 05:41:52;;;;;;;12.23;6.57;;;;;;;;;;2075406;28;20219;-59
2022/05/15 05:42:52;;;;;;;8.88;5.47;;;;;;;;;;2075539;28;20177;-58
2022/05/15 05:43:52;;;;;;;11.93;6.25;;;;;;;;;;2075248;28;20179;-55
2022/05/15 05:44:54;;;;;;;9.60;5.95;;;;;;;;;;2074770;28;20181;-59
2022/05/15 05:45:54;;;;;;;8.32;6.15;;;;;;;;;;2075339;28;20617;-59
2022/05/15 05:46:54;;;;;;;10.10;5.88;;;;;;;;;;2075550;28;20181;-57
2022/05/15 05:47:55;;;;;;;7.90;5.75;;;;;;;;;;2075853;28;20200;-57
2022/05/15 05:48:56;;;;;;;9.90;6.18;;;;;;;;;;2077908;28;20176;-57
2022/05/15 05:49:56;;;;;;;9.93;6.20;;;;;;;;;;2082377;28;20207;-57
2022/05/15 05:50:56;;;;;;;9.40;6.57;;;;;;;;;;2083231;28;20173;-59
2022/05/15 05:51:56;;;;;;;12.75;6.18;;;;;;;;;;2075375;28;20717;-55
2022/05/15 05:52:58;;;;;;;11.10;6.60;;;;;;;;;;2076674;28;20165;-57
2022/05/15 05:53:58;;;;;;;9.80;5.70;;;;;;;;;;2076067;28;20191;-60
2022/05/15 05:54:58;;;;;;;9.52;6.18;;;;;;;;;;2075534;28;20263;-58
2022/05/15 05:55:58;;;;;;;8.27;6.03;;;;;;;;;;2075965;28;20168;-59
2022/05/15 05:56:59;;;;;;;10.35;6.60;;;;;;;;;;2075553;28;20197;-60
2022/05/15 05:57:59;;;;;;;9.05;6.13;;;;;;;;;;2075803;28;20533;-60
2022/05/15 05:58:59;;;;;;;7.97;6.20;;;;;;;;;;2075649;28;20215;-56
2022/05/15 05:59:59;;;;;;;8.10;6.18;;;;;;;;;;2082558;28;20257;-56
2022/05/15 06:01:00;;;;;;;13.52;6.35;;;;;;;;;;2082600;28;20173;-58
2022/05/15 06:02:00;;;;;;;13.13;6.45;;;;;;;;;;2074950;28;20292;-57
2022/05/15 06:05:38;;;;;;;10.10;6.63;;;;;;;;;;2075062;28;20156;-59